sensor_id;sensor_type;location;lat;lon;timestamp;temperature;humidity
10133;DHT22;5106;50.926;7.080;2023-06-22T00:01:48;21.00;78.80
10133;DHT22;5106;50.926;7.080;2023-06-22T00:04:13;21.00;78.70
10133;DHT22;5106;50.926;7.080;2023-06-22T00:06:39;21.00;78.50
10133;DHT22;5106;50.926;7.080;2023-06-22T00:09:05;21.00;78.30
10133;DHT22;5106;50.926;7.080;2023-06-22T00:11:33;21.00;78.20
10133;DHT22;5106;50.926;7.080;2023-06-22T00:14:02;21.00;78.10
10133;DHT22;5106;50.926;7.080;2023-06-22T00:16:27;21.00;78.00
10133;DHT22;5106;50.926;7.080;2023-06-22T00:18:53;21.00;77.90
10133;DHT22;5106;50.926;7.080;2023-06-22T00:21:18;21.00;77.80
10133;DHT22;5106;50.926;7.080;2023-06-22T00:23:46;21.00;77.70
10133;DHT22;5106;50.926;7.080;2023-06-22T00:26:13;21.00;77.50
10133;DHT22;5106;50.926;7.080;2023-06-22T00:28:39;21.00;77.30
10133;DHT22;5106;50.926;7.080;2023-06-22T00:31:04;21.00;77.20
10133;DHT22;5106;50.926;7.080;2023-06-22T00:33:30;21.00;76.80
10133;DHT22;5106;50.926;7.080;2023-06-22T00:35:56;21.00;76.60
10133;DHT22;5106;50.926;7.080;2023-06-22T00:38:22;21.10;76.30
10133;DHT22;5106;50.926;7.080;2023-06-22T00:40:48;21.10;76.50
10133;DHT22;5106;50.926;7.080;2023-06-22T00:43:13;21.20;76.90
10133;DHT22;5106;50.926;7.080;2023-06-22T00:45:39;21.20;77.10
10133;DHT22;5106;50.926;7.080;2023-06-22T00:48:05;21.20;77.10
10133;DHT22;5106;50.926;7.080;2023-06-22T00:50:32;21.20;76.70
10133;DHT22;5106;50.926;7.080;2023-06-22T00:53:03;21.10;76.70
10133;DHT22;5106;50.926;7.080;2023-06-22T00:55:38;21.10;76.80
10133;DHT22;5106;50.926;7.080;2023-06-22T00:58:10;21.10;76.80
10133;DHT22;5106;50.926;7.080;2023-06-22T01:00:37;21.10;77.00
10133;DHT22;5106;50.926;7.080;2023-06-22T01:03:06;21.10;77.10
10133;DHT22;5106;50.926;7.080;2023-06-22T01:05:36;21.10;77.10
10133;DHT22;5106;50.926;7.080;2023-06-22T01:08:07;21.10;77.30
10133;DHT22;5106;50.926;7.080;2023-06-22T01:13:07;21.10;77.60
10133;DHT22;5106;50.926;7.080;2023-06-22T01:15:45;21.10;77.80
10133;DHT22;5106;50.926;7.080;2023-06-22T01:18:16;21.10;77.80
10133;DHT22;5106;50.926;7.080;2023-06-22T01:20:42;21.10;77.80
10133;DHT22;5106;50.926;7.080;2023-06-22T01:24:06;21.10;78.10
10133;DHT22;5106;50.926;7.080;2023-06-22T01:26:18;21.10;78.30
10133;DHT22;5106;50.926;7.080;2023-06-22T01:28:47;21.00;78.50
10133;DHT22;5106;50.926;7.080;2023-06-22T01:31:25;21.10;78.50
10133;DHT22;5106;50.926;7.080;2023-06-22T01:33:54;21.00;78.60
10133;DHT22;5106;50.926;7.080;2023-06-22T01:36:21;21.00;78.80
10133;DHT22;5106;50.926;7.080;2023-06-22T01:38:48;21.00;78.80
10133;DHT22;5106;50.926;7.080;2023-06-22T01:41:16;20.90;78.60
10133;DHT22;5106;50.926;7.080;2023-06-22T01:43:43;20.90;78.40
10133;DHT22;5106;50.926;7.080;2023-06-22T01:46:11;20.90;78.30
10133;DHT22;5106;50.926;7.080;2023-06-22T01:48:38;20.80;78.20
10133;DHT22;5106;50.926;7.080;2023-06-22T01:51:04;20.80;78.00
10133;DHT22;5106;50.926;7.080;2023-06-22T01:53:30;20.80;77.90
10133;DHT22;5106;50.926;7.080;2023-06-22T01:55:56;20.80;77.70
10133;DHT22;5106;50.926;7.080;2023-06-22T01:58:25;20.80;77.80
10133;DHT22;5106;50.926;7.080;2023-06-22T02:03:31;20.80;78.40
10133;DHT22;5106;50.926;7.080;2023-06-22T02:06:04;20.80;78.50
10133;DHT22;5106;50.926;7.080;2023-06-22T02:08:35;20.80;78.40
10133;DHT22;5106;50.926;7.080;2023-06-22T02:11:02;20.80;78.50
10133;DHT22;5106;50.926;7.080;2023-06-22T02:13:29;20.80;78.40
10133;DHT22;5106;50.926;7.080;2023-06-22T02:15:55;20.80;78.80
10133;DHT22;5106;50.926;7.080;2023-06-22T02:18:21;20.80;78.80
10133;DHT22;5106;50.926;7.080;2023-06-22T02:20:47;20.80;78.80
10133;DHT22;5106;50.926;7.080;2023-06-22T02:23:12;20.80;78.90
10133;DHT22;5106;50.926;7.080;2023-06-22T02:25:38;20.80;79.20
10133;DHT22;5106;50.926;7.080;2023-06-22T02:28:04;20.80;79.20
10133;DHT22;5106;50.926;7.080;2023-06-22T02:30:30;20.70;79.10
10133;DHT22;5106;50.926;7.080;2023-06-22T02:32:56;20.70;79.10
10133;DHT22;5106;50.926;7.080;2023-06-22T02:35:28;20.70;79.20
10133;DHT22;5106;50.926;7.080;2023-06-22T02:37:58;20.70;79.20
10133;DHT22;5106;50.926;7.080;2023-06-22T02:40:24;20.80;79.20
10133;DHT22;5106;50.926;7.080;2023-06-22T02:42:50;20.80;79.10
10133;DHT22;5106;50.926;7.080;2023-06-22T02:45:16;20.80;79.20
10133;DHT22;5106;50.926;7.080;2023-06-22T02:47:41;20.70;79.20
10133;DHT22;5106;50.926;7.080;2023-06-22T02:50:07;20.70;79.00
10133;DHT22;5106;50.926;7.080;2023-06-22T02:52:33;20.70;78.50
10133;DHT22;5106;50.926;7.080;2023-06-22T02:54:59;20.60;78.30
10133;DHT22;5106;50.926;7.080;2023-06-22T02:57:25;20.60;78.10
10133;DHT22;5106;50.926;7.080;2023-06-22T02:59:50;20.60;78.10
10133;DHT22;5106;50.926;7.080;2023-06-22T03:02:16;20.60;78.30
10133;DHT22;5106;50.926;7.080;2023-06-22T03:04:42;20.50;78.20
10133;DHT22;5106;50.926;7.080;2023-06-22T03:07:08;20.50;78.10
10133;DHT22;5106;50.926;7.080;2023-06-22T03:09:34;20.50;78.30
10133;DHT22;5106;50.926;7.080;2023-06-22T03:11:59;20.50;78.50
10133;DHT22;5106;50.926;7.080;2023-06-22T03:14:25;20.50;78.50
10133;DHT22;5106;50.926;7.080;2023-06-22T03:16:51;20.50;78.80
10133;DHT22;5106;50.926;7.080;2023-06-22T03:19:17;20.50;78.70
10133;DHT22;5106;50.926;7.080;2023-06-22T03:21:42;20.40;78.60
10133;DHT22;5106;50.926;7.080;2023-06-22T03:24:08;20.40;78.50
10133;DHT22;5106;50.926;7.080;2023-06-22T03:26:34;20.40;78.30
10133;DHT22;5106;50.926;7.080;2023-06-22T03:29:00;20.40;78.50
10133;DHT22;5106;50.926;7.080;2023-06-22T03:31:26;20.40;78.60
10133;DHT22;5106;50.926;7.080;2023-06-22T03:33:51;20.50;78.70
10133;DHT22;5106;50.926;7.080;2023-06-22T03:36:18;20.50;78.80
10133;DHT22;5106;50.926;7.080;2023-06-22T03:38:48;20.50;78.60
10133;DHT22;5106;50.926;7.080;2023-06-22T03:41:14;20.50;78.60
10133;DHT22;5106;50.926;7.080;2023-06-22T03:43:40;20.50;78.80
10133;DHT22;5106;50.926;7.080;2023-06-22T03:46:06;20.50;79.10
10133;DHT22;5106;50.926;7.080;2023-06-22T03:48:31;20.50;79.10
10133;DHT22;5106;50.926;7.080;2023-06-22T03:50:59;20.50;79.10
10133;DHT22;5106;50.926;7.080;2023-06-22T03:53:24;20.50;79.10
10133;DHT22;5106;50.926;7.080;2023-06-22T03:55:51;20.50;79.30
10133;DHT22;5106;50.926;7.080;2023-06-22T03:58:18;20.50;79.30
10133;DHT22;5106;50.926;7.080;2023-06-22T04:00:48;20.50;79.40
10133;DHT22;5106;50.926;7.080;2023-06-22T04:03:17;20.50;79.20
10133;DHT22;5106;50.926;7.080;2023-06-22T04:05:46;20.50;79.10
10133;DHT22;5106;50.926;7.080;2023-06-22T04:08:15;20.50;79.00
10133;DHT22;5106;50.926;7.080;2023-06-22T04:10:41;20.50;79.10
10133;DHT22;5106;50.926;7.080;2023-06-22T04:13:07;20.60;79.00
10133;DHT22;5106;50.926;7.080;2023-06-22T04:15:32;20.60;79.00
10133;DHT22;5106;50.926;7.080;2023-06-22T04:17:58;20.60;79.10
10133;DHT22;5106;50.926;7.080;2023-06-22T04:20:23;20.60;79.00
10133;DHT22;5106;50.926;7.080;2023-06-22T04:22:53;20.70;79.00
10133;DHT22;5106;50.926;7.080;2023-06-22T04:25:19;20.70;79.30
10133;DHT22;5106;50.926;7.080;2023-06-22T04:27:45;20.70;79.20
10133;DHT22;5106;50.926;7.080;2023-06-22T04:30:11;20.70;79.00
10133;DHT22;5106;50.926;7.080;2023-06-22T04:32:37;20.80;78.40
10133;DHT22;5106;50.926;7.080;2023-06-22T04:35:04;20.80;78.00
10133;DHT22;5106;50.926;7.080;2023-06-22T04:37:30;20.90;77.60
10133;DHT22;5106;50.926;7.080;2023-06-22T04:39:56;20.90;78.00
10133;DHT22;5106;50.926;7.080;2023-06-22T04:42:21;20.90;78.50
10133;DHT22;5106;50.926;7.080;2023-06-22T04:44:47;20.90;78.70
10133;DHT22;5106;50.926;7.080;2023-06-22T04:47:13;20.80;78.90
10133;DHT22;5106;50.926;7.080;2023-06-22T04:49:38;20.80;79.00
10133;DHT22;5106;50.926;7.080;2023-06-22T04:52:07;20.70;78.90
10133;DHT22;5106;50.926;7.080;2023-06-22T04:54:34;20.70;79.20
10133;DHT22;5106;50.926;7.080;2023-06-22T04:57:07;20.70;79.10
10133;DHT22;5106;50.926;7.080;2023-06-22T04:59:37;20.60;79.10
10133;DHT22;5106;50.926;7.080;2023-06-22T05:02:05;20.50;79.20
10133;DHT22;5106;50.926;7.080;2023-06-22T05:04:31;20.40;79.90
10133;DHT22;5106;50.926;7.080;2023-06-22T05:06:57;20.40;79.90
10133;DHT22;5106;50.926;7.080;2023-06-22T05:09:23;20.40;80.10
10133;DHT22;5106;50.926;7.080;2023-06-22T05:11:50;20.50;80.20
10133;DHT22;5106;50.926;7.080;2023-06-22T05:14:16;20.50;80.10
10133;DHT22;5106;50.926;7.080;2023-06-22T05:16:43;20.50;79.90
10133;DHT22;5106;50.926;7.080;2023-06-22T05:19:09;20.60;79.90
10133;DHT22;5106;50.926;7.080;2023-06-22T05:21:35;20.60;80.00
10133;DHT22;5106;50.926;7.080;2023-06-22T05:24:00;20.70;80.20
10133;DHT22;5106;50.926;7.080;2023-06-22T05:26:31;20.70;80.30
10133;DHT22;5106;50.926;7.080;2023-06-22T05:28:57;20.80;80.10
10133;DHT22;5106;50.926;7.080;2023-06-22T05:31:23;20.80;79.80
10133;DHT22;5106;50.926;7.080;2023-06-22T05:33:53;20.80;79.90
10133;DHT22;5106;50.926;7.080;2023-06-22T05:36:19;20.90;79.60
10133;DHT22;5106;50.926;7.080;2023-06-22T05:38:45;20.90;79.30
10133;DHT22;5106;50.926;7.080;2023-06-22T05:41:11;21.00;79.10
10133;DHT22;5106;50.926;7.080;2023-06-22T05:43:37;21.10;78.80
10133;DHT22;5106;50.926;7.080;2023-06-22T05:46:03;21.20;78.60
10133;DHT22;5106;50.926;7.080;2023-06-22T05:48:30;21.20;78.30
10133;DHT22;5106;50.926;7.080;2023-06-22T05:50:55;21.30;78.20
10133;DHT22;5106;50.926;7.080;2023-06-22T05:53:21;21.40;78.30
10133;DHT22;5106;50.926;7.080;2023-06-22T05:55:47;21.40;78.30
10133;DHT22;5106;50.926;7.080;2023-06-22T05:58:12;21.50;78.40
10133;DHT22;5106;50.926;7.080;2023-06-22T06:00:39;21.50;78.40
10133;DHT22;5106;50.926;7.080;2023-06-22T06:03:05;21.50;78.10
10133;DHT22;5106;50.926;7.080;2023-06-22T06:05:32;21.60;78.10
10133;DHT22;5106;50.926;7.080;2023-06-22T06:07:59;21.70;78.50
10133;DHT22;5106;50.926;7.080;2023-06-22T06:10:25;21.70;78.40
10133;DHT22;5106;50.926;7.080;2023-06-22T06:12:50;21.80;78.10
10133;DHT22;5106;50.926;7.080;2023-06-22T06:15:16;21.90;77.70
10133;DHT22;5106;50.926;7.080;2023-06-22T06:17:49;22.00;77.50
10133;DHT22;5106;50.926;7.080;2023-06-22T06:20:17;22.10;77.50
10133;DHT22;5106;50.926;7.080;2023-06-22T06:22:43;22.10;78.00
10133;DHT22;5106;50.926;7.080;2023-06-22T06:25:09;22.10;78.20
10133;DHT22;5106;50.926;7.080;2023-06-22T06:27:34;22.10;78.00
10133;DHT22;5106;50.926;7.080;2023-06-22T06:30:00;22.10;78.00
10133;DHT22;5106;50.926;7.080;2023-06-22T06:32:25;22.10;78.20
10133;DHT22;5106;50.926;7.080;2023-06-22T06:34:51;22.20;77.90
10133;DHT22;5106;50.926;7.080;2023-06-22T06:37:17;22.30;78.40
10133;DHT22;5106;50.926;7.080;2023-06-22T06:39:44;22.30;78.20
10133;DHT22;5106;50.926;7.080;2023-06-22T06:42:09;22.30;77.20
10133;DHT22;5106;50.926;7.080;2023-06-22T06:44:36;22.30;77.20
10133;DHT22;5106;50.926;7.080;2023-06-22T06:47:04;22.30;77.10
10133;DHT22;5106;50.926;7.080;2023-06-22T06:49:29;22.30;77.00
10133;DHT22;5106;50.926;7.080;2023-06-22T06:51:55;22.40;76.80
10133;DHT22;5106;50.926;7.080;2023-06-22T06:54:21;22.50;76.60
10133;DHT22;5106;50.926;7.080;2023-06-22T06:56:47;22.50;76.60
10133;DHT22;5106;50.926;7.080;2023-06-22T06:59:14;22.50;76.50
10133;DHT22;5106;50.926;7.080;2023-06-22T07:01:41;22.60;76.60
10133;DHT22;5106;50.926;7.080;2023-06-22T07:04:06;22.70;76.70
10133;DHT22;5106;50.926;7.080;2023-06-22T07:06:32;22.70;77.20
10133;DHT22;5106;50.926;7.080;2023-06-22T07:08:59;22.70;77.20
10133;DHT22;5106;50.926;7.080;2023-06-22T07:11:25;22.80;77.10
10133;DHT22;5106;50.926;7.080;2023-06-22T07:13:50;22.90;76.50
10133;DHT22;5106;50.926;7.080;2023-06-22T07:16:16;22.90;76.00
10133;DHT22;5106;50.926;7.080;2023-06-22T07:18:41;23.00;75.70
10133;DHT22;5106;50.926;7.080;2023-06-22T07:21:07;23.00;76.00
10133;DHT22;5106;50.926;7.080;2023-06-22T07:23:33;23.10;76.10
10133;DHT22;5106;50.926;7.080;2023-06-22T07:25:59;23.10;75.50
10133;DHT22;5106;50.926;7.080;2023-06-22T07:28:27;23.20;75.30
10133;DHT22;5106;50.926;7.080;2023-06-22T07:30:53;23.30;75.40
10133;DHT22;5106;50.926;7.080;2023-06-22T07:33:19;23.50;75.30
10133;DHT22;5106;50.926;7.080;2023-06-22T07:35:45;23.50;75.00
10133;DHT22;5106;50.926;7.080;2023-06-22T07:38:12;23.70;75.70
10133;DHT22;5106;50.926;7.080;2023-06-22T07:40:38;23.70;75.00
10133;DHT22;5106;50.926;7.080;2023-06-22T07:43:04;23.70;75.80
10133;DHT22;5106;50.926;7.080;2023-06-22T07:45:29;23.70;75.90
10133;DHT22;5106;50.926;7.080;2023-06-22T07:47:55;23.80;75.00
10133;DHT22;5106;50.926;7.080;2023-06-22T07:50:20;23.80;75.00
10133;DHT22;5106;50.926;7.080;2023-06-22T07:52:46;23.90;74.90
10133;DHT22;5106;50.926;7.080;2023-06-22T07:55:14;24.00;74.80
10133;DHT22;5106;50.926;7.080;2023-06-22T07:57:40;24.10;74.00
10133;DHT22;5106;50.926;7.080;2023-06-22T08:00:07;24.10;73.90
10133;DHT22;5106;50.926;7.080;2023-06-22T08:02:39;24.10;74.00
10133;DHT22;5106;50.926;7.080;2023-06-22T08:05:05;24.20;74.00
10133;DHT22;5106;50.926;7.080;2023-06-22T08:07:34;24.30;74.20
10133;DHT22;5106;50.926;7.080;2023-06-22T08:10:02;24.40;74.10
10133;DHT22;5106;50.926;7.080;2023-06-22T08:12:28;24.50;73.60
10133;DHT22;5106;50.926;7.080;2023-06-22T08:14:53;24.60;73.50
10133;DHT22;5106;50.926;7.080;2023-06-22T08:17:19;24.70;73.50
10133;DHT22;5106;50.926;7.080;2023-06-22T08:19:44;24.70;73.20
10133;DHT22;5106;50.926;7.080;2023-06-22T08:22:10;24.80;73.20
10133;DHT22;5106;50.926;7.080;2023-06-22T08:24:35;25.00;73.40
10133;DHT22;5106;50.926;7.080;2023-06-22T08:27:01;25.10;71.60
10133;DHT22;5106;50.926;7.080;2023-06-22T08:29:26;25.20;70.80
10133;DHT22;5106;50.926;7.080;2023-06-22T08:31:52;25.30;70.90
10133;DHT22;5106;50.926;7.080;2023-06-22T08:34:17;25.30;70.60
10133;DHT22;5106;50.926;7.080;2023-06-22T08:36:47;25.40;70.30
10133;DHT22;5106;50.926;7.080;2023-06-22T08:39:17;25.50;70.70
10133;DHT22;5106;50.926;7.080;2023-06-22T08:41:42;25.60;70.70
10133;DHT22;5106;50.926;7.080;2023-06-22T08:44:08;25.70;70.60
10133;DHT22;5106;50.926;7.080;2023-06-22T08:46:34;25.70;70.50
10133;DHT22;5106;50.926;7.080;2023-06-22T08:52:41;25.80;70.90
10133;DHT22;5106;50.926;7.080;2023-06-22T08:55:07;25.80;70.50
10133;DHT22;5106;50.926;7.080;2023-06-22T08:57:34;25.90;70.70
10133;DHT22;5106;50.926;7.080;2023-06-22T08:59:59;25.90;70.60
10133;DHT22;5106;50.926;7.080;2023-06-22T09:02:28;25.90;70.00
10133;DHT22;5106;50.926;7.080;2023-06-22T09:04:57;25.90;70.50
10133;DHT22;5106;50.926;7.080;2023-06-22T09:07:23;25.90;70.80
10133;DHT22;5106;50.926;7.080;2023-06-22T09:09:50;25.90;71.20
10133;DHT22;5106;50.926;7.080;2023-06-22T09:12:17;25.90;70.70
10133;DHT22;5106;50.926;7.080;2023-06-22T09:14:45;25.90;70.70
10133;DHT22;5106;50.926;7.080;2023-06-22T09:17:12;25.90;70.70
10133;DHT22;5106;50.926;7.080;2023-06-22T09:19:37;26.00;70.80
10133;DHT22;5106;50.926;7.080;2023-06-22T09:22:03;26.00;70.70
10133;DHT22;5106;50.926;7.080;2023-06-22T09:24:31;26.00;70.90
10133;DHT22;5106;50.926;7.080;2023-06-22T09:26:56;26.00;70.90
10133;DHT22;5106;50.926;7.080;2023-06-22T09:29:22;26.10;71.90
10133;DHT22;5106;50.926;7.080;2023-06-22T09:31:48;26.10;71.40
10133;DHT22;5106;50.926;7.080;2023-06-22T09:34:13;26.20;70.70
10133;DHT22;5106;50.926;7.080;2023-06-22T09:36:41;26.30;69.80
10133;DHT22;5106;50.926;7.080;2023-06-22T09:39:06;26.30;69.90
10133;DHT22;5106;50.926;7.080;2023-06-22T09:41:32;26.40;69.80
10133;DHT22;5106;50.926;7.080;2023-06-22T09:43:58;26.50;70.20
10133;DHT22;5106;50.926;7.080;2023-06-22T09:46:23;26.60;70.40
10133;DHT22;5106;50.926;7.080;2023-06-22T09:48:53;26.60;69.80
10133;DHT22;5106;50.926;7.080;2023-06-22T09:51:19;26.70;69.80
10133;DHT22;5106;50.926;7.080;2023-06-22T09:53:47;26.80;69.80
10133;DHT22;5106;50.926;7.080;2023-06-22T09:56:13;26.80;69.70
10133;DHT22;5106;50.926;7.080;2023-06-22T09:58:42;26.90;69.10
10133;DHT22;5106;50.926;7.080;2023-06-22T10:01:08;26.90;69.30
10133;DHT22;5106;50.926;7.080;2023-06-22T10:03:35;26.80;69.00
10133;DHT22;5106;50.926;7.080;2023-06-22T10:06:01;26.80;71.20
10133;DHT22;5106;50.926;7.080;2023-06-22T10:08:27;26.70;70.00
10133;DHT22;5106;50.926;7.080;2023-06-22T10:10:52;26.60;69.60
10133;DHT22;5106;50.926;7.080;2023-06-22T10:13:20;26.50;69.80
10133;DHT22;5106;50.926;7.080;2023-06-22T10:15:46;26.50;69.90
10133;DHT22;5106;50.926;7.080;2023-06-22T10:18:16;26.40;70.30
10133;DHT22;5106;50.926;7.080;2023-06-22T10:20:42;26.40;70.90
10133;DHT22;5106;50.926;7.080;2023-06-22T10:23:10;26.30;72.00
10133;DHT22;5106;50.926;7.080;2023-06-22T10:25:35;26.20;72.40
10133;DHT22;5106;50.926;7.080;2023-06-22T10:28:01;26.10;73.20
10133;DHT22;5106;50.926;7.080;2023-06-22T10:30:26;26.00;74.00
10133;DHT22;5106;50.926;7.080;2023-06-22T10:32:54;25.80;74.40
10133;DHT22;5106;50.926;7.080;2023-06-22T10:35:19;25.70;75.10
10133;DHT22;5106;50.926;7.080;2023-06-22T10:37:46;25.50;75.60
10133;DHT22;5106;50.926;7.080;2023-06-22T10:40:16;25.40;76.30
10133;DHT22;5106;50.926;7.080;2023-06-22T10:42:41;25.20;76.60
10133;DHT22;5106;50.926;7.080;2023-06-22T10:45:08;25.10;77.00
10133;DHT22;5106;50.926;7.080;2023-06-22T10:47:34;25.00;77.30
10133;DHT22;5106;50.926;7.080;2023-06-22T10:50:00;24.90;77.70
10133;DHT22;5106;50.926;7.080;2023-06-22T10:52:26;24.70;78.00
10133;DHT22;5106;50.926;7.080;2023-06-22T10:54:51;24.60;78.30
10133;DHT22;5106;50.926;7.080;2023-06-22T10:57:18;24.50;78.60
10133;DHT22;5106;50.926;7.080;2023-06-22T10:59:44;24.30;78.90
10133;DHT22;5106;50.926;7.080;2023-06-22T11:02:09;24.20;79.10
10133;DHT22;5106;50.926;7.080;2023-06-22T11:04:35;24.00;79.40
10133;DHT22;5106;50.926;7.080;2023-06-22T11:07:01;23.90;79.80
10133;DHT22;5106;50.926;7.080;2023-06-22T11:09:26;23.80;80.30
10133;DHT22;5106;50.926;7.080;2023-06-22T11:11:52;23.70;80.90
10133;DHT22;5106;50.926;7.080;2023-06-22T11:14:21;23.60;81.20
10133;DHT22;5106;50.926;7.080;2023-06-22T11:16:47;23.50;81.30
10133;DHT22;5106;50.926;7.080;2023-06-22T14:35:03;24.60;79.60
10133;DHT22;5106;50.926;7.080;2023-06-22T14:37:29;24.50;79.80
10133;DHT22;5106;50.926;7.080;2023-06-22T14:39:55;24.40;80.10
10133;DHT22;5106;50.926;7.080;2023-06-22T14:42:20;24.40;80.40
10133;DHT22;5106;50.926;7.080;2023-06-22T14:44:47;24.30;80.30
10133;DHT22;5106;50.926;7.080;2023-06-22T14:47:14;24.20;80.30
10133;DHT22;5106;50.926;7.080;2023-06-22T14:49:39;24.10;80.40
10133;DHT22;5106;50.926;7.080;2023-06-22T14:52:06;24.00;80.60
10133;DHT22;5106;50.926;7.080;2023-06-22T14:54:32;23.90;80.80
10133;DHT22;5106;50.926;7.080;2023-06-22T14:56:57;23.80;81.10
10133;DHT22;5106;50.926;7.080;2023-06-22T14:59:23;23.70;81.40
10133;DHT22;5106;50.926;7.080;2023-06-22T15:01:48;23.50;81.80
10133;DHT22;5106;50.926;7.080;2023-06-22T15:04:15;23.40;82.20
10133;DHT22;5106;50.926;7.080;2023-06-22T15:06:40;23.20;82.20
10133;DHT22;5106;50.926;7.080;2023-06-22T15:09:06;23.10;82.50
10133;DHT22;5106;50.926;7.080;2023-06-22T15:11:31;23.00;82.70
10133;DHT22;5106;50.926;7.080;2023-06-22T15:13:59;22.90;82.80
10133;DHT22;5106;50.926;7.080;2023-06-22T15:16:26;22.80;83.00
10133;DHT22;5106;50.926;7.080;2023-06-22T15:18:51;22.80;83.30
10133;DHT22;5106;50.926;7.080;2023-06-22T15:21:17;22.70;83.50
10133;DHT22;5106;50.926;7.080;2023-06-22T15:23:43;22.60;83.60
10133;DHT22;5106;50.926;7.080;2023-06-22T15:26:09;22.60;83.90
10133;DHT22;5106;50.926;7.080;2023-06-22T15:28:34;22.50;84.10
10133;DHT22;5106;50.926;7.080;2023-06-22T15:31:02;22.50;84.30
10133;DHT22;5106;50.926;7.080;2023-06-22T15:33:28;22.50;84.30
10133;DHT22;5106;50.926;7.080;2023-06-22T15:35:54;22.40;83.80
10133;DHT22;5106;50.926;7.080;2023-06-22T15:38:21;22.20;83.30
10133;DHT22;5106;50.926;7.080;2023-06-22T15:40:46;22.20;83.10
10133;DHT22;5106;50.926;7.080;2023-06-22T15:43:12;22.10;83.30
10133;DHT22;5106;50.926;7.080;2023-06-22T15:45:40;22.00;83.30
10133;DHT22;5106;50.926;7.080;2023-06-22T15:48:06;21.80;83.40
10133;DHT22;5106;50.926;7.080;2023-06-22T15:50:32;21.80;83.50
10133;DHT22;5106;50.926;7.080;2023-06-22T15:52:57;21.80;83.90
10133;DHT22;5106;50.926;7.080;2023-06-22T15:55:23;21.80;84.00
10133;DHT22;5106;50.926;7.080;2023-06-22T15:57:48;21.70;84.10
10133;DHT22;5106;50.926;7.080;2023-06-22T16:00:15;21.70;84.40
10133;DHT22;5106;50.926;7.080;2023-06-22T16:02:42;21.60;84.50
10133;DHT22;5106;50.926;7.080;2023-06-22T16:05:08;21.70;84.70
10133;DHT22;5106;50.926;7.080;2023-06-22T16:07:35;21.70;84.90
10133;DHT22;5106;50.926;7.080;2023-06-22T16:10:01;21.70;85.10
10133;DHT22;5106;50.926;7.080;2023-06-22T16:12:26;21.70;85.00
10133;DHT22;5106;50.926;7.080;2023-06-22T16:14:54;21.60;85.00
10133;DHT22;5106;50.926;7.080;2023-06-22T16:17:20;21.60;85.10
10133;DHT22;5106;50.926;7.080;2023-06-22T16:19:46;21.60;85.20
10133;DHT22;5106;50.926;7.080;2023-06-22T16:22:12;21.60;85.30
10133;DHT22;5106;50.926;7.080;2023-06-22T16:24:37;21.60;85.40
10133;DHT22;5106;50.926;7.080;2023-06-22T16:27:03;21.70;85.60
10133;DHT22;5106;50.926;7.080;2023-06-22T16:29:29;21.70;85.40
10133;DHT22;5106;50.926;7.080;2023-06-22T16:31:54;21.70;85.30
10133;DHT22;5106;50.926;7.080;2023-06-22T16:34:20;21.80;85.20
10133;DHT22;5106;50.926;7.080;2023-06-22T16:36:46;21.80;85.30
10133;DHT22;5106;50.926;7.080;2023-06-22T16:39:11;21.80;85.40
10133;DHT22;5106;50.926;7.080;2023-06-22T16:41:37;21.80;85.30
10133;DHT22;5106;50.926;7.080;2023-06-22T16:44:06;21.80;85.30
10133;DHT22;5106;50.926;7.080;2023-06-22T16:46:35;21.80;85.20
10133;DHT22;5106;50.926;7.080;2023-06-22T16:49:00;21.90;85.20
10133;DHT22;5106;50.926;7.080;2023-06-22T16:51:29;22.00;85.20
10133;DHT22;5106;50.926;7.080;2023-06-22T16:53:55;22.00;85.00
10133;DHT22;5106;50.926;7.080;2023-06-22T16:56:27;22.00;85.00
10133;DHT22;5106;50.926;7.080;2023-06-22T16:58:55;22.00;84.90
10133;DHT22;5106;50.926;7.080;2023-06-22T17:01:23;21.90;84.80
10133;DHT22;5106;50.926;7.080;2023-06-22T17:04:08;21.90;84.90
10133;DHT22;5106;50.926;7.080;2023-06-22T17:06:35;21.80;85.00
10133;DHT22;5106;50.926;7.080;2023-06-22T17:09:04;21.80;85.00
10133;DHT22;5106;50.926;7.080;2023-06-22T17:11:30;21.90;85.10
10133;DHT22;5106;50.926;7.080;2023-06-22T17:13:57;21.90;85.00
10133;DHT22;5106;50.926;7.080;2023-06-22T17:16:24;21.90;85.10
10133;DHT22;5106;50.926;7.080;2023-06-22T17:18:52;21.90;85.20
10133;DHT22;5106;50.926;7.080;2023-06-22T17:21:22;22.00;85.20
10133;DHT22;5106;50.926;7.080;2023-06-22T17:23:49;22.00;85.30
10133;DHT22;5106;50.926;7.080;2023-06-22T17:26:16;22.00;85.30
10133;DHT22;5106;50.926;7.080;2023-06-22T17:28:53;22.10;85.40
10133;DHT22;5106;50.926;7.080;2023-06-22T17:31:28;22.10;85.30
10133;DHT22;5106;50.926;7.080;2023-06-22T17:34:12;22.20;85.10
10133;DHT22;5106;50.926;7.080;2023-06-22T17:36:44;22.20;85.00
10133;DHT22;5106;50.926;7.080;2023-06-22T17:39:11;22.20;84.90
10133;DHT22;5106;50.926;7.080;2023-06-22T17:41:38;22.20;84.90
10133;DHT22;5106;50.926;7.080;2023-06-22T17:44:04;22.20;84.60
10133;DHT22;5106;50.926;7.080;2023-06-22T17:46:35;22.20;84.50
10133;DHT22;5106;50.926;7.080;2023-06-22T17:49:00;22.20;84.60
10133;DHT22;5106;50.926;7.080;2023-06-22T17:51:26;22.10;84.70
10133;DHT22;5106;50.926;7.080;2023-06-22T17:53:52;22.10;84.70
10133;DHT22;5106;50.926;7.080;2023-06-22T17:56:18;22.10;84.70
10133;DHT22;5106;50.926;7.080;2023-06-22T17:58:50;22.10;84.60
10133;DHT22;5106;50.926;7.080;2023-06-22T18:01:27;22.10;84.60
10133;DHT22;5106;50.926;7.080;2023-06-22T18:03:52;22.00;84.70
10133;DHT22;5106;50.926;7.080;2023-06-22T18:06:18;22.10;84.60
10133;DHT22;5106;50.926;7.080;2023-06-22T18:08:45;22.10;84.50
10133;DHT22;5106;50.926;7.080;2023-06-22T18:11:12;22.10;84.40
10133;DHT22;5106;50.926;7.080;2023-06-22T18:13:40;22.10;84.40
10133;DHT22;5106;50.926;7.080;2023-06-22T18:16:09;22.10;84.30
10133;DHT22;5106;50.926;7.080;2023-06-22T18:18:35;22.10;84.30
10133;DHT22;5106;50.926;7.080;2023-06-22T18:21:03;22.10;84.20
10133;DHT22;5106;50.926;7.080;2023-06-22T18:23:30;22.00;84.10
10133;DHT22;5106;50.926;7.080;2023-06-22T18:26:05;22.00;84.20
10133;DHT22;5106;50.926;7.080;2023-06-22T18:28:32;22.00;84.10
10133;DHT22;5106;50.926;7.080;2023-06-22T18:31:00;22.00;84.00
10133;DHT22;5106;50.926;7.080;2023-06-22T18:33:28;22.00;84.10
10133;DHT22;5106;50.926;7.080;2023-06-22T18:35:55;21.90;84.10
10133;DHT22;5106;50.926;7.080;2023-06-22T18:38:22;21.80;84.10
10133;DHT22;5106;50.926;7.080;2023-06-22T18:40:50;21.80;84.10
10133;DHT22;5106;50.926;7.080;2023-06-22T18:43:28;21.70;83.90
10133;DHT22;5106;50.926;7.080;2023-06-22T18:45:55;21.60;84.00
10133;DHT22;5106;50.926;7.080;2023-06-22T18:48:41;21.60;84.10
10133;DHT22;5106;50.926;7.080;2023-06-22T18:51:15;21.60;84.20
10133;DHT22;5106;50.926;7.080;2023-06-22T19:55:37;19.20;85.20
10133;DHT22;5106;50.926;7.080;2023-06-22T19:58:06;19.10;85.40
10133;DHT22;5106;50.926;7.080;2023-06-22T20:00:31;19.00;85.90
10133;DHT22;5106;50.926;7.080;2023-06-22T20:03:00;18.90;86.30
10133;DHT22;5106;50.926;7.080;2023-06-22T20:05:26;18.80;86.50
10133;DHT22;5106;50.926;7.080;2023-06-22T20:07:51;18.70;86.70
10133;DHT22;5106;50.926;7.080;2023-06-22T20:10:22;18.60;86.80